<?xml version="1.0" encoding="UTF-8" standalone="no" ?>
<gpx xmlns="http://www.topografix.com/GPX/1/1" xmlns:xsi="http://www.w3.org/2001/XMLSchema-instance" xsi:schemaLocation="http://www.topografix.com/GPX/1/1 http://www.topografix.com/GPX/1/1/gpx.xsd" version="1.1" creator="VisuGPX - https://www.visugpx.com">
  <metadata>
    <name>Parcours VTT bosse et descente</name>
    <desc><![CDATA[Vit descente]]></desc>
  </metadata>
  <trk>
    <name><![CDATA[13/05/2015 11:20]]></name>
    <desc><![CDATA[Vit descente]]></desc>
    <trkseg>
      <trkpt lat="47.83204" lon="-2.6448">
        <ele>219.6</ele>
        <time>2015-05-13T09:20:04.676Z</time>
      </trkpt>
      <trkpt lat="47.83202" lon="-2.64492">
        <ele>203.2</ele>
        <time>2015-05-13T09:20:15.764Z</time>
      </trkpt>
      <trkpt lat="47.83206" lon="-2.64503">
        <ele>210</ele>
        <time>2015-05-13T09:20:16.745Z</time>
      </trkpt>
      <trkpt lat="47.83207" lon="-2.64513">
        <ele>208.3</ele>
        <time>2015-05-13T09:20:19.960Z</time>
      </trkpt>
      <trkpt lat="47.83209" lon="-2.64517">
        <ele>207.6</ele>
        <time>2015-05-13T09:20:20.975Z</time>
      </trkpt>
      <trkpt lat="47.83211" lon="-2.64528">
        <ele>208.5</ele>
        <time>2015-05-13T09:20:23.965Z</time>
      </trkpt>
      <trkpt lat="47.83212" lon="-2.64533">
        <ele>208.2</ele>
        <time>2015-05-13T09:20:24.934Z</time>
      </trkpt>
      <trkpt lat="47.83214" lon="-2.64543">
        <ele>207.5</ele>
        <time>2015-05-13T09:20:26.959Z</time>
      </trkpt>
      <trkpt lat="47.83215" lon="-2.64546">
        <ele>205.7</ele>
        <time>2015-05-13T09:20:27.953Z</time>
      </trkpt>
      <trkpt lat="47.83219" lon="-2.64555">
        <ele>205.1</ele>
        <time>2015-05-13T09:20:31.107Z</time>
      </trkpt>
      <trkpt lat="47.83221" lon="-2.64557">
        <ele>205.1</ele>
        <time>2015-05-13T09:20:31.991Z</time>
      </trkpt>
      <trkpt lat="47.83224" lon="-2.64567">
        <ele>205</ele>
        <time>2015-05-13T09:20:35.982Z</time>
      </trkpt>
      <trkpt lat="47.83224" lon="-2.64571">
        <ele>204.5</ele>
        <time>2015-05-13T09:20:37.019Z</time>
      </trkpt>
      <trkpt lat="47.83226" lon="-2.64583">
        <ele>202.5</ele>
        <time>2015-05-13T09:20:39.875Z</time>
      </trkpt>
      <trkpt lat="47.83226" lon="-2.64587">
        <ele>201.8</ele>
        <time>2015-05-13T09:20:40.988Z</time>
      </trkpt>
      <trkpt lat="47.83228" lon="-2.64596">
        <ele>202.6</ele>
        <time>2015-05-13T09:20:43.020Z</time>
      </trkpt>
      <trkpt lat="47.83229" lon="-2.646">
        <ele>202.4</ele>
        <time>2015-05-13T09:20:43.952Z</time>
      </trkpt>
      <trkpt lat="47.8323" lon="-2.64613">
        <ele>203.3</ele>
        <time>2015-05-13T09:20:46.990Z</time>
      </trkpt>
      <trkpt lat="47.83231" lon="-2.64617">
        <ele>204</ele>
        <time>2015-05-13T09:20:47.989Z</time>
      </trkpt>
      <trkpt lat="47.83232" lon="-2.64621">
        <ele>203.4</ele>
        <time>2015-05-13T09:20:48.939Z</time>
      </trkpt>
      <trkpt lat="47.83233" lon="-2.6463">
        <ele>201.6</ele>
        <time>2015-05-13T09:20:50.934Z</time>
      </trkpt>
      <trkpt lat="47.83235" lon="-2.64639">
        <ele>202.3</ele>
        <time>2015-05-13T09:20:52.989Z</time>
      </trkpt>
      <trkpt lat="47.83236" lon="-2.64644">
        <ele>202.5</ele>
        <time>2015-05-13T09:20:54.030Z</time>
      </trkpt>
      <trkpt lat="47.83238" lon="-2.64653">
        <ele>203.1</ele>
        <time>2015-05-13T09:20:56.113Z</time>
      </trkpt>
      <trkpt lat="47.8324" lon="-2.64657">
        <ele>203.1</ele>
        <time>2015-05-13T09:20:56.990Z</time>
      </trkpt>
      <trkpt lat="47.83243" lon="-2.64667">
        <ele>203.4</ele>
        <time>2015-05-13T09:20:59.995Z</time>
      </trkpt>
      <trkpt lat="47.83245" lon="-2.6467">
        <ele>203.4</ele>
        <time>2015-05-13T09:21:00.981Z</time>
      </trkpt>
      <trkpt lat="47.83249" lon="-2.64677">
        <ele>202.8</ele>
        <time>2015-05-13T09:21:04.048Z</time>
      </trkpt>
      <trkpt lat="47.83251" lon="-2.64681">
        <ele>202.9</ele>
        <time>2015-05-13T09:21:05.029Z</time>
      </trkpt>
      <trkpt lat="47.83257" lon="-2.6469">
        <ele>201.7</ele>
        <time>2015-05-13T09:21:08.993Z</time>
      </trkpt>
      <trkpt lat="47.83259" lon="-2.64692">
        <ele>201.5</ele>
        <time>2015-05-13T09:21:09.940Z</time>
      </trkpt>
      <trkpt lat="47.83267" lon="-2.64688">
        <ele>202.3</ele>
        <time>2015-05-13T09:21:15.079Z</time>
      </trkpt>
      <trkpt lat="47.83268" lon="-2.64686">
        <ele>202.6</ele>
        <time>2015-05-13T09:21:16.038Z</time>
      </trkpt>
      <trkpt lat="47.83276" lon="-2.64687">
        <ele>200.5</ele>
        <time>2015-05-13T09:21:22.093Z</time>
      </trkpt>
      <trkpt lat="47.83278" lon="-2.64689">
        <ele>199.1</ele>
        <time>2015-05-13T09:21:22.995Z</time>
      </trkpt>
      <trkpt lat="47.83284" lon="-2.64696">
        <ele>200.2</ele>
        <time>2015-05-13T09:21:27.097Z</time>
      </trkpt>
      <trkpt lat="47.83287" lon="-2.64698">
        <ele>200</ele>
        <time>2015-05-13T09:21:28.041Z</time>
      </trkpt>
      <trkpt lat="47.83293" lon="-2.64705">
        <ele>200.1</ele>
        <time>2015-05-13T09:21:31.153Z</time>
      </trkpt>
      <trkpt lat="47.83294" lon="-2.64707">
        <ele>200.2</ele>
        <time>2015-05-13T09:21:32.049Z</time>
      </trkpt>
      <trkpt lat="47.83301" lon="-2.64715">
        <ele>196.6</ele>
        <time>2015-05-13T09:21:35.910Z</time>
      </trkpt>
      <trkpt lat="47.83303" lon="-2.64716">
        <ele>196.8</ele>
        <time>2015-05-13T09:21:36.925Z</time>
      </trkpt>
      <trkpt lat="47.83309" lon="-2.64724">
        <ele>196.6</ele>
        <time>2015-05-13T09:21:41.062Z</time>
      </trkpt>
      <trkpt lat="47.83311" lon="-2.64727">
        <ele>196.5</ele>
        <time>2015-05-13T09:21:42.043Z</time>
      </trkpt>
      <trkpt lat="47.83317" lon="-2.64735">
        <ele>196.2</ele>
        <time>2015-05-13T09:21:45.034Z</time>
      </trkpt>
      <trkpt lat="47.83319" lon="-2.64738">
        <ele>196.1</ele>
        <time>2015-05-13T09:21:45.992Z</time>
      </trkpt>
      <trkpt lat="47.83326" lon="-2.64745">
        <ele>191.4</ele>
        <time>2015-05-13T09:21:49.083Z</time>
      </trkpt>
      <trkpt lat="47.83327" lon="-2.64747">
        <ele>190.8</ele>
        <time>2015-05-13T09:21:50.097Z</time>
      </trkpt>
      <trkpt lat="47.83328" lon="-2.64759">
        <ele>193.1</ele>
        <time>2015-05-13T09:21:54.125Z</time>
      </trkpt>
      <trkpt lat="47.83328" lon="-2.64761">
        <ele>193</ele>
        <time>2015-05-13T09:21:55.095Z</time>
      </trkpt>
      <trkpt lat="47.83327" lon="-2.64773">
        <ele>192.1</ele>
        <time>2015-05-13T09:21:59.010Z</time>
      </trkpt>
      <trkpt lat="47.83326" lon="-2.64776">
        <ele>192.4</ele>
        <time>2015-05-13T09:21:59.962Z</time>
      </trkpt>
      <trkpt lat="47.83326" lon="-2.64787">
        <ele>190.9</ele>
        <time>2015-05-13T09:22:03.074Z</time>
      </trkpt>
      <trkpt lat="47.83324" lon="-2.64791">
        <ele>192.4</ele>
        <time>2015-05-13T09:22:04.053Z</time>
      </trkpt>
      <trkpt lat="47.8332" lon="-2.64799">
        <ele>193.9</ele>
        <time>2015-05-13T09:22:06.113Z</time>
      </trkpt>
      <trkpt lat="47.83317" lon="-2.64801">
        <ele>194</ele>
        <time>2015-05-13T09:22:07.019Z</time>
      </trkpt>
      <trkpt lat="47.83315" lon="-2.64813">
        <ele>196</ele>
        <time>2015-05-13T09:22:12.140Z</time>
      </trkpt>
      <trkpt lat="47.83315" lon="-2.64815">
        <ele>196.4</ele>
        <time>2015-05-13T09:22:13.023Z</time>
      </trkpt>
      <trkpt lat="47.83314" lon="-2.64826">
        <ele>198.1</ele>
        <time>2015-05-13T09:22:17.945Z</time>
      </trkpt>
      <trkpt lat="47.83314" lon="-2.6483">
        <ele>200.5</ele>
        <time>2015-05-13T09:22:19.052Z</time>
      </trkpt>
      <trkpt lat="47.83311" lon="-2.64842">
        <ele>200.8</ele>
        <time>2015-05-13T09:22:22.923Z</time>
      </trkpt>
      <trkpt lat="47.83311" lon="-2.64845">
        <ele>199.7</ele>
        <time>2015-05-13T09:22:23.955Z</time>
      </trkpt>
      <trkpt lat="47.8331" lon="-2.64856">
        <ele>198.5</ele>
        <time>2015-05-13T09:22:26.985Z</time>
      </trkpt>
      <trkpt lat="47.8331" lon="-2.64859">
        <ele>198.8</ele>
        <time>2015-05-13T09:22:28.054Z</time>
      </trkpt>
      <trkpt lat="47.8331" lon="-2.64871">
        <ele>199.1</ele>
        <time>2015-05-13T09:22:31.045Z</time>
      </trkpt>
      <trkpt lat="47.8331" lon="-2.64875">
        <ele>199.2</ele>
        <time>2015-05-13T09:22:31.991Z</time>
      </trkpt>
      <trkpt lat="47.83308" lon="-2.64888">
        <ele>198.8</ele>
        <time>2015-05-13T09:22:35.932Z</time>
      </trkpt>
      <trkpt lat="47.83307" lon="-2.6489">
        <ele>198.9</ele>
        <time>2015-05-13T09:22:37.004Z</time>
      </trkpt>
      <trkpt lat="47.83301" lon="-2.64898">
        <ele>199.4</ele>
        <time>2015-05-13T09:22:42.105Z</time>
      </trkpt>
      <trkpt lat="47.83299" lon="-2.649">
        <ele>198.8</ele>
        <time>2015-05-13T09:22:43.033Z</time>
      </trkpt>
      <trkpt lat="47.83294" lon="-2.6491">
        <ele>200.5</ele>
        <time>2015-05-13T09:22:50.020Z</time>
      </trkpt>
      <trkpt lat="47.83293" lon="-2.64912">
        <ele>201</ele>
        <time>2015-05-13T09:22:51.079Z</time>
      </trkpt>
      <trkpt lat="47.83286" lon="-2.64916">
        <ele>198.7</ele>
        <time>2015-05-13T09:23:24.028Z</time>
      </trkpt>
      <trkpt lat="47.83285" lon="-2.64916">
        <ele>198.4</ele>
        <time>2015-05-13T09:23:25.058Z</time>
      </trkpt>
      <trkpt lat="47.83276" lon="-2.64913">
        <ele>200.9</ele>
        <time>2015-05-13T09:23:30.009Z</time>
      </trkpt>
      <trkpt lat="47.83275" lon="-2.64911">
        <ele>201.1</ele>
        <time>2015-05-13T09:23:31.001Z</time>
      </trkpt>
      <trkpt lat="47.83267" lon="-2.64908">
        <ele>199.7</ele>
        <time>2015-05-13T09:23:35.984Z</time>
      </trkpt>
      <trkpt lat="47.83265" lon="-2.64909">
        <ele>199.8</ele>
        <time>2015-05-13T09:23:36.946Z</time>
      </trkpt>
      <trkpt lat="47.83258" lon="-2.64915">
        <ele>198.9</ele>
        <time>2015-05-13T09:23:42.070Z</time>
      </trkpt>
      <trkpt lat="47.83257" lon="-2.64917">
        <ele>198.8</ele>
        <time>2015-05-13T09:23:43.009Z</time>
      </trkpt>
      <trkpt lat="47.8325" lon="-2.64922">
        <ele>198.7</ele>
        <time>2015-05-13T09:23:45.946Z</time>
      </trkpt>
      <trkpt lat="47.83248" lon="-2.64925">
        <ele>198.5</ele>
        <time>2015-05-13T09:23:47.002Z</time>
      </trkpt>
      <trkpt lat="47.8324" lon="-2.64928">
        <ele>196.9</ele>
        <time>2015-05-13T09:23:51.084Z</time>
      </trkpt>
      <trkpt lat="47.83238" lon="-2.64928">
        <ele>196.8</ele>
        <time>2015-05-13T09:23:52.003Z</time>
      </trkpt>
      <trkpt lat="47.83231" lon="-2.6493">
        <ele>197.6</ele>
        <time>2015-05-13T09:23:56.001Z</time>
      </trkpt>
      <trkpt lat="47.83229" lon="-2.64932">
        <ele>197.4</ele>
        <time>2015-05-13T09:23:57.021Z</time>
      </trkpt>
      <trkpt lat="47.83222" lon="-2.64935">
        <ele>196.4</ele>
        <time>2015-05-13T09:24:00.131Z</time>
      </trkpt>
      <trkpt lat="47.8322" lon="-2.64936">
        <ele>196.4</ele>
        <time>2015-05-13T09:24:01.023Z</time>
      </trkpt>
      <trkpt lat="47.83212" lon="-2.64936">
        <ele>192.2</ele>
        <time>2015-05-13T09:24:06.168Z</time>
      </trkpt>
      <trkpt lat="47.83211" lon="-2.64937">
        <ele>192.1</ele>
        <time>2015-05-13T09:24:06.991Z</time>
      </trkpt>
      <trkpt lat="47.83204" lon="-2.64944">
        <ele>191.8</ele>
        <time>2015-05-13T09:24:12.091Z</time>
      </trkpt>
      <trkpt lat="47.83203" lon="-2.64944">
        <ele>189.9</ele>
        <time>2015-05-13T09:24:13.044Z</time>
      </trkpt>
      <trkpt lat="47.83196" lon="-2.64937">
        <ele>189.7</ele>
        <time>2015-05-13T09:24:19.079Z</time>
      </trkpt>
      <trkpt lat="47.83195" lon="-2.64935">
        <ele>189.5</ele>
        <time>2015-05-13T09:24:20.055Z</time>
      </trkpt>
      <trkpt lat="47.83188" lon="-2.64927">
        <ele>187.8</ele>
        <time>2015-05-13T09:24:25.038Z</time>
      </trkpt>
      <trkpt lat="47.83186" lon="-2.64926">
        <ele>187.7</ele>
        <time>2015-05-13T09:24:26.068Z</time>
      </trkpt>
      <trkpt lat="47.83178" lon="-2.64927">
        <ele>187.8</ele>
        <time>2015-05-13T09:24:30.089Z</time>
      </trkpt>
      <trkpt lat="47.83177" lon="-2.64927">
        <ele>187.8</ele>
        <time>2015-05-13T09:24:30.941Z</time>
      </trkpt>
      <trkpt lat="47.83169" lon="-2.64926">
        <ele>184.6</ele>
        <time>2015-05-13T09:24:37.011Z</time>
      </trkpt>
      <trkpt lat="47.83167" lon="-2.64926">
        <ele>183.8</ele>
        <time>2015-05-13T09:24:38.011Z</time>
      </trkpt>
      <trkpt lat="47.83159" lon="-2.64926">
        <ele>183.4</ele>
        <time>2015-05-13T09:24:43.045Z</time>
      </trkpt>
      <trkpt lat="47.83157" lon="-2.64927">
        <ele>183.2</ele>
        <time>2015-05-13T09:24:44.108Z</time>
      </trkpt>
      <trkpt lat="47.83149" lon="-2.64932">
        <ele>184.5</ele>
        <time>2015-05-13T09:24:49.025Z</time>
      </trkpt>
      <trkpt lat="47.83148" lon="-2.64932">
        <ele>184</ele>
        <time>2015-05-13T09:24:50.059Z</time>
      </trkpt>
      <trkpt lat="47.83139" lon="-2.64928">
        <ele>181.1</ele>
        <time>2015-05-13T09:24:57.113Z</time>
      </trkpt>
      <trkpt lat="47.83139" lon="-2.64927">
        <ele>179.4</ele>
        <time>2015-05-13T09:24:58.091Z</time>
      </trkpt>
      <trkpt lat="47.83133" lon="-2.64917">
        <ele>179.1</ele>
        <time>2015-05-13T09:25:03.011Z</time>
      </trkpt>
      <trkpt lat="47.83132" lon="-2.64916">
        <ele>176.7</ele>
        <time>2015-05-13T09:25:04.139Z</time>
      </trkpt>
      <trkpt lat="47.83126" lon="-2.64906">
        <ele>174.6</ele>
        <time>2015-05-13T09:25:09.064Z</time>
      </trkpt>
      <trkpt lat="47.83124" lon="-2.64903">
        <ele>173.3</ele>
        <time>2015-05-13T09:25:10.011Z</time>
      </trkpt>
      <trkpt lat="47.8312" lon="-2.64896">
        <ele>171.4</ele>
        <time>2015-05-13T09:25:12.027Z</time>
      </trkpt>
      <trkpt lat="47.83117" lon="-2.64893">
        <ele>171.1</ele>
        <time>2015-05-13T09:25:13.091Z</time>
      </trkpt>
      <trkpt lat="47.83111" lon="-2.64887">
        <ele>170.8</ele>
        <time>2015-05-13T09:25:15.027Z</time>
      </trkpt>
      <trkpt lat="47.83109" lon="-2.64883">
        <ele>170.8</ele>
        <time>2015-05-13T09:25:16.071Z</time>
      </trkpt>
      <trkpt lat="47.83105" lon="-2.64872">
        <ele>172.5</ele>
        <time>2015-05-13T09:25:19.021Z</time>
      </trkpt>
      <trkpt lat="47.83104" lon="-2.6487">
        <ele>174.6</ele>
        <time>2015-05-13T09:25:20.012Z</time>
      </trkpt>
      <trkpt lat="47.83097" lon="-2.64866">
        <ele>173.5</ele>
        <time>2015-05-13T09:25:24.993Z</time>
      </trkpt>
      <trkpt lat="47.83095" lon="-2.64864">
        <ele>172.7</ele>
        <time>2015-05-13T09:25:25.955Z</time>
      </trkpt>
      <trkpt lat="47.83087" lon="-2.64861">
        <ele>177.3</ele>
        <time>2015-05-13T09:25:52.994Z</time>
      </trkpt>
    </trkseg>
  </trk>
</gpx>